sensor_id;sensor_type;location;lat;lon;timestamp;pressure;altitude;pressure_sealevel;temperature;humidity
78843;BME280;70542;53.774;-0.352;2023-12-28T00:04:47;99220;;;8;52
78843;BME280;70542;53.774;-0.352;2023-12-28T00:10:37;99220;;;9;50
78843;BME280;70542;53.774;-0.352;2023-12-28T00:16:27;99220;;;7;52
78843;BME280;70542;53.774;-0.352;2023-12-28T00:22:18;99210;;;7;51
78843;BME280;70542;53.774;-0.352;2023-12-28T00:28:01;99220;;;8;50
78843;BME280;70542;53.774;-0.352;2023-12-28T00:33:51;99230;;;8;51
78843;BME280;70542;53.774;-0.352;2023-12-28T00:39:33;99260;;;8;51
78843;BME280;70542;53.774;-0.352;2023-12-28T00:45:21;99260;;;8;51
78843;BME280;70542;53.774;-0.352;2023-12-28T00:51:03;99280;;;8;50
78843;BME280;70542;53.774;-0.352;2023-12-28T00:56:46;99290;;;7;51
78843;BME280;70542;53.774;-0.352;2023-12-28T01:02:32;99280;;;8;50
78843;BME280;70542;53.774;-0.352;2023-12-28T01:08:11;99290;;;8;49
78843;BME280;70542;53.774;-0.352;2023-12-28T01:13:57;99320;;;8;49
78843;BME280;70542;53.774;-0.352;2023-12-28T01:19:36;99320;;;7;49
78843;BME280;70542;53.774;-0.352;2023-12-28T01:25:22;99330;;;7;49
78843;BME280;70542;53.774;-0.352;2023-12-28T01:31:20;99320;;;7;49
78843;BME280;70542;53.774;-0.352;2023-12-28T01:37:06;99290;;;8;48
78843;BME280;70542;53.774;-0.352;2023-12-28T01:43:00;99310;;;8;47
78843;BME280;70542;53.774;-0.352;2023-12-28T01:48:50;99320;;;8;48
78843;BME280;70542;53.774;-0.352;2023-12-28T01:54:43;99330;;;8;47
78843;BME280;70542;53.774;-0.352;2023-12-28T02:00:33;99340;;;8;48
78843;BME280;70542;53.774;-0.352;2023-12-28T02:06:23;99350;;;9;47
78843;BME280;70542;53.774;-0.352;2023-12-28T02:12:09;99360;;;9;46
78843;BME280;70542;53.774;-0.352;2023-12-28T02:18:08;99360;;;9;46
78843;BME280;70542;53.774;-0.352;2023-12-28T02:23:58;99340;;;9;48
78843;BME280;70542;53.774;-0.352;2023-12-28T02:29:44;99340;;;9;48
78843;BME280;70542;53.774;-0.352;2023-12-28T02:35:36;99320;;;8;48
78843;BME280;70542;53.774;-0.352;2023-12-28T02:41:31;99310;;;9;47
78843;BME280;70542;53.774;-0.352;2023-12-28T02:47:14;99340;;;8;49
78843;BME280;70542;53.774;-0.352;2023-12-28T02:53:01;99340;;;8;49
78843;BME280;70542;53.774;-0.352;2023-12-28T02:58:51;99330;;;8;51
78843;BME280;70542;53.774;-0.352;2023-12-28T03:04:44;99340;;;8;52
78843;BME280;70542;53.774;-0.352;2023-12-28T03:10:39;99330;;;8;51
78843;BME280;70542;53.774;-0.352;2023-12-28T03:16:35;99320;;;8;51
78843;BME280;70542;53.774;-0.352;2023-12-28T03:22:23;99330;;;8;50
78843;BME280;70542;53.774;-0.352;2023-12-28T03:28:07;99330;;;9;48
78843;BME280;70542;53.774;-0.352;2023-12-28T03:33:49;99330;;;8;50
78843;BME280;70542;53.774;-0.352;2023-12-28T03:39:36;99350;;;8;50
78843;BME280;70542;53.774;-0.352;2023-12-28T03:45:25;99340;;;8;52
78843;BME280;70542;53.774;-0.352;2023-12-28T03:51:13;99350;;;8;50
78843;BME280;70542;53.774;-0.352;2023-12-28T03:57:08;99370;;;8;50
78843;BME280;70542;53.774;-0.352;2023-12-28T04:02:53;99400;;;8;51
78843;BME280;70542;53.774;-0.352;2023-12-28T04:08:34;99410;;;7;55
78843;BME280;70542;53.774;-0.352;2023-12-28T04:14:16;99430;;;7;55
78843;BME280;70542;53.774;-0.352;2023-12-28T04:20:09;99430;;;8;53
78843;BME280;70542;53.774;-0.352;2023-12-28T04:25:59;99460;;;8;51
78843;BME280;70542;53.774;-0.352;2023-12-28T04:31:40;99480;;;7;52
78843;BME280;70542;53.774;-0.352;2023-12-28T04:37:19;99510;;;7;52
78843;BME280;70542;53.774;-0.352;2023-12-28T04:43:05;99520;;;7;53
78843;BME280;70542;53.774;-0.352;2023-12-28T04:48:48;99530;;;7;53
78843;BME280;70542;53.774;-0.352;2023-12-28T04:54:31;99540;;;8;52
78843;BME280;70542;53.774;-0.352;2023-12-28T05:00:14;99560;;;7;52
78843;BME280;70542;53.774;-0.352;2023-12-28T05:06:04;99580;;;8;50
78843;BME280;70542;53.774;-0.352;2023-12-28T05:11:47;99600;;;7;52
78843;BME280;70542;53.774;-0.352;2023-12-28T05:17:29;99610;;;7;53
78843;BME280;70542;53.774;-0.352;2023-12-28T05:23:12;99610;;;8;51
78843;BME280;70542;53.774;-0.352;2023-12-28T05:28:54;99630;;;7;53
78843;BME280;70542;53.774;-0.352;2023-12-28T05:34:44;99640;;;6;56
78843;BME280;70542;53.774;-0.352;2023-12-28T05:40:27;99640;;;6;56
78843;BME280;70542;53.774;-0.352;2023-12-28T05:46:21;99640;;;7;54
78843;BME280;70542;53.774;-0.352;2023-12-28T05:52:11;99650;;;7;55
78843;BME280;70542;53.774;-0.352;2023-12-28T05:58:02;99650;;;7;55
78843;BME280;70542;53.774;-0.352;2023-12-28T06:04:01;99660;;;7;54
78843;BME280;70542;53.774;-0.352;2023-12-28T06:09:45;99650;;;9;50
78843;BME280;70542;53.774;-0.352;2023-12-28T06:15:37;99650;;;8;50
78843;BME280;70542;53.774;-0.352;2023-12-28T06:21:35;99640;;;9;48
78843;BME280;70542;53.774;-0.352;2023-12-28T06:27:35;99640;;;9;48
78843;BME280;70542;53.774;-0.352;2023-12-28T06:33:29;99640;;;8;50
78843;BME280;70542;53.774;-0.352;2023-12-28T06:39:24;99650;;;8;50
78843;BME280;70542;53.774;-0.352;2023-12-28T06:45:14;99660;;;8;51
78843;BME280;70542;53.774;-0.352;2023-12-28T06:51:16;99680;;;8;50
78843;BME280;70542;53.774;-0.352;2023-12-28T06:57:09;99690;;;8;50
78843;BME280;70542;53.774;-0.352;2023-12-28T07:03:03;99690;;;8;51
78843;BME280;70542;53.774;-0.352;2023-12-28T07:08:47;99700;;;9;49
78843;BME280;70542;53.774;-0.352;2023-12-28T07:14:39;99710;;;9;50
78843;BME280;70542;53.774;-0.352;2023-12-28T07:20:41;99720;;;8;50
78843;BME280;70542;53.774;-0.352;2023-12-28T07:26:33;99720;;;8;50
78843;BME280;70542;53.774;-0.352;2023-12-28T07:32:19;99730;;;9;50
78843;BME280;70542;53.774;-0.352;2023-12-28T07:38:05;99730;;;8;50
78843;BME280;70542;53.774;-0.352;2023-12-28T07:44:08;99740;;;9;50
78843;BME280;70542;53.774;-0.352;2023-12-28T07:49:51;99750;;;9;49
78843;BME280;70542;53.774;-0.352;2023-12-28T07:55:41;99760;;;9;51
78843;BME280;70542;53.774;-0.352;2023-12-28T08:01:38;99770;;;8;50
78843;BME280;70542;53.774;-0.352;2023-12-28T08:07:30;99760;;;9;49
78843;BME280;70542;53.774;-0.352;2023-12-28T08:13:19;99760;;;8;50
78843;BME280;70542;53.774;-0.352;2023-12-28T08:19:09;99770;;;10;46
78843;BME280;70542;53.774;-0.352;2023-12-28T08:24:55;99770;;;10;46
78843;BME280;70542;53.774;-0.352;2023-12-28T08:30:38;99780;;;9;48
78843;BME280;70542;53.774;-0.352;2023-12-28T08:36:26;99790;;;9;47
78843;BME280;70542;53.774;-0.352;2023-12-28T08:42:12;99790;;;9;47
78843;BME280;70542;53.774;-0.352;2023-12-28T08:48:05;99770;;;9;45
78843;BME280;70542;53.774;-0.352;2023-12-28T08:53:48;99790;;;9;47
78843;BME280;70542;53.774;-0.352;2023-12-28T08:59:39;99800;;;7;50
78843;BME280;70542;53.774;-0.352;2023-12-28T09:05:34;99830;;;8;51
78843;BME280;70542;53.774;-0.352;2023-12-28T09:11:13;99820;;;7;52
78843;BME280;70542;53.774;-0.352;2023-12-28T09:17:11;99820;;;8;51
78843;BME280;70542;53.774;-0.352;2023-12-28T09:22:53;99840;;;7;52
78843;BME280;70542;53.774;-0.352;2023-12-28T09:28:39;99850;;;8;51
78843;BME280;70542;53.774;-0.352;2023-12-28T09:34:26;99840;;;8;52
78843;BME280;70542;53.774;-0.352;2023-12-28T09:40:19;99840;;;7;54
78843;BME280;70542;53.774;-0.352;2023-12-28T09:46:11;99830;;;9;50
78843;BME280;70542;53.774;-0.352;2023-12-28T09:51:58;99840;;;8;52
78843;BME280;70542;53.774;-0.352;2023-12-28T09:57:48;99830;;;8;51
78843;BME280;70542;53.774;-0.352;2023-12-28T10:03:39;99840;;;9;51
78843;BME280;70542;53.774;-0.352;2023-12-28T10:09:31;99840;;;8;52
78843;BME280;70542;53.774;-0.352;2023-12-28T10:15:17;99850;;;9;52
78843;BME280;70542;53.774;-0.352;2023-12-28T10:21:04;99850;;;8;53
78843;BME280;70542;53.774;-0.352;2023-12-28T10:27:05;99850;;;9;50
78843;BME280;70542;53.774;-0.352;2023-12-28T10:32:48;99860;;;9;51
78843;BME280;70542;53.774;-0.352;2023-12-28T10:38:43;99850;;;9;51
78843;BME280;70542;53.774;-0.352;2023-12-28T10:44:28;99840;;;10;49
78843;BME280;70542;53.774;-0.352;2023-12-28T10:50:11;99820;;;9;50
78843;BME280;70542;53.774;-0.352;2023-12-28T10:56:00;99840;;;9;50
78843;BME280;70542;53.774;-0.352;2023-12-28T11:01:49;99820;;;9;49
78843;BME280;70542;53.774;-0.352;2023-12-28T11:07:30;99820;;;10;49
78843;BME280;70542;53.774;-0.352;2023-12-28T11:13:10;99820;;;9;50
78843;BME280;70542;53.774;-0.352;2023-12-28T11:18:50;99800;;;10;50
78843;BME280;70542;53.774;-0.352;2023-12-28T11:24:30;99800;;;10;49
78843;BME280;70542;53.774;-0.352;2023-12-28T11:30:11;99780;;;10;47
78843;BME280;70542;53.774;-0.352;2023-12-28T11:35:53;99770;;;10;47
78843;BME280;70542;53.774;-0.352;2023-12-28T11:41:37;99750;;;10;47
78843;BME280;70542;53.774;-0.352;2023-12-28T11:47:20;99730;;;11;46
78843;BME280;70542;53.774;-0.352;2023-12-28T11:52:59;99720;;;11;47
78843;BME280;70542;53.774;-0.352;2023-12-28T11:58:38;99700;;;10;48
78843;BME280;70542;53.774;-0.352;2023-12-28T12:04:17;99700;;;10;47
78843;BME280;70542;53.774;-0.352;2023-12-28T12:09:56;99680;;;9;49
78843;BME280;70542;53.774;-0.352;2023-12-28T12:15:35;99690;;;10;49
78843;BME280;70542;53.774;-0.352;2023-12-28T12:21:14;99700;;;10;49
78843;BME280;70542;53.774;-0.352;2023-12-28T12:26:53;99710;;;10;50
78843;BME280;70542;53.774;-0.352;2023-12-28T12:32:37;99720;;;9;55
78843;BME280;70542;53.774;-0.352;2023-12-28T12:38:16;99700;;;9;57
78843;BME280;70542;53.774;-0.352;2023-12-28T12:43:55;99690;;;10;55
78843;BME280;70542;53.774;-0.352;2023-12-28T12:49:48;99680;;;10;54
78843;BME280;70542;53.774;-0.352;2023-12-28T12:55:27;99670;;;10;52
78843;BME280;70542;53.774;-0.352;2023-12-28T13:01:10;99640;;;9;53
78843;BME280;70542;53.774;-0.352;2023-12-28T13:06:52;99630;;;9;55
78843;BME280;70542;53.774;-0.352;2023-12-28T13:12:31;99610;;;11;52
78843;BME280;70542;53.774;-0.352;2023-12-28T13:18:11;99600;;;11;49
78843;BME280;70542;53.774;-0.352;2023-12-28T13:23:49;99590;;;11;49
78843;BME280;70542;53.774;-0.352;2023-12-28T13:29:28;99590;;;10;51
78843;BME280;70542;53.774;-0.352;2023-12-28T13:35:07;99590;;;9;51
78843;BME280;70542;53.774;-0.352;2023-12-28T13:40:46;99590;;;10;49
78843;BME280;70542;53.774;-0.352;2023-12-28T13:46:26;99590;;;10;49
78843;BME280;70542;53.774;-0.352;2023-12-28T13:52:13;99600;;;9;51
78843;BME280;70542;53.774;-0.352;2023-12-28T13:57:52;99610;;;9;52
78843;BME280;70542;53.774;-0.352;2023-12-28T14:03:31;99610;;;9;53
78843;BME280;70542;53.774;-0.352;2023-12-28T14:09:14;99610;;;9;51
78843;BME280;70542;53.774;-0.352;2023-12-28T14:14:53;99630;;;9;53
78843;BME280;70542;53.774;-0.352;2023-12-28T14:20:31;99610;;;8;58
78843;BME280;70542;53.774;-0.352;2023-12-28T14:26:18;99580;;;8;60
78843;BME280;70542;53.774;-0.352;2023-12-28T14:32:12;99590;;;8;61
78843;BME280;70542;53.774;-0.352;2023-12-28T14:37:54;99580;;;9;57
78843;BME280;70542;53.774;-0.352;2023-12-28T14:43:41;99580;;;8;56
78843;BME280;70542;53.774;-0.352;2023-12-28T14:49:30;99580;;;9;56
78843;BME280;70542;53.774;-0.352;2023-12-28T14:55:16;99580;;;9;55
78843;BME280;70542;53.774;-0.352;2023-12-28T15:01:06;99570;;;10;53
78843;BME280;70542;53.774;-0.352;2023-12-28T15:07:00;99580;;;10;53
78843;BME280;70542;53.774;-0.352;2023-12-28T15:12:44;99570;;;10;54
78843;BME280;70542;53.774;-0.352;2023-12-28T15:18:35;99560;;;11;51
78843;BME280;70542;53.774;-0.352;2023-12-28T15:24:33;99580;;;11;51
78843;BME280;70542;53.774;-0.352;2023-12-28T15:30:30;99590;;;11;51
78843;BME280;70542;53.774;-0.352;2023-12-28T15:36:35;99580;;;11;51
78843;BME280;70542;53.774;-0.352;2023-12-28T15:42:17;99580;;;10;53
78843;BME280;70542;53.774;-0.352;2023-12-28T15:48:05;99600;;;10;54
78843;BME280;70542;53.774;-0.352;2023-12-28T15:53:48;99610;;;9;57
78843;BME280;70542;53.774;-0.352;2023-12-28T15:59:32;99610;;;10;55
78843;BME280;70542;53.774;-0.352;2023-12-28T16:05:13;99610;;;10;55
78843;BME280;70542;53.774;-0.352;2023-12-28T16:10:52;99630;;;10;53
78843;BME280;70542;53.774;-0.352;2023-12-28T16:16:31;99640;;;10;54
78843;BME280;70542;53.774;-0.352;2023-12-28T16:22:18;99640;;;11;52
78843;BME280;70542;53.774;-0.352;2023-12-28T16:27:58;99640;;;10;52
78843;BME280;70542;53.774;-0.352;2023-12-28T16:33:44;99650;;;10;51
78843;BME280;70542;53.774;-0.352;2023-12-28T16:39:30;99650;;;10;51
78843;BME280;70542;53.774;-0.352;2023-12-28T16:45:13;99650;;;10;50
78843;BME280;70542;53.774;-0.352;2023-12-28T16:50:56;99650;;;10;49
78843;BME280;70542;53.774;-0.352;2023-12-28T16:56:54;99660;;;7;56
78843;BME280;70542;53.774;-0.352;2023-12-28T17:02:42;99660;;;7;56
78843;BME280;70542;53.774;-0.352;2023-12-28T17:08:25;99670;;;6;59
78843;BME280;70542;53.774;-0.352;2023-12-28T17:14:05;99670;;;7;57
78843;BME280;70542;53.774;-0.352;2023-12-28T17:19:57;99670;;;7;56
78843;BME280;70542;53.774;-0.352;2023-12-28T17:25:48;99670;;;9;52
78843;BME280;70542;53.774;-0.352;2023-12-28T17:31:36;99670;;;11;48
78843;BME280;70542;53.774;-0.352;2023-12-28T17:37:34;99680;;;10;47
78843;BME280;70542;53.774;-0.352;2023-12-28T17:43:35;99670;;;10;48
78843;BME280;70542;53.774;-0.352;2023-12-28T17:49:30;99680;;;10;49
78843;BME280;70542;53.774;-0.352;2023-12-28T17:55:09;99680;;;9;50
78843;BME280;70542;53.774;-0.352;2023-12-28T18:01:03;99680;;;10;48
78843;BME280;70542;53.774;-0.352;2023-12-28T18:06:53;99680;;;10;47
78843;BME280;70542;53.774;-0.352;2023-12-28T18:12:40;99670;;;10;47
78843;BME280;70542;53.774;-0.352;2023-12-28T18:18:24;99670;;;11;47
78843;BME280;70542;53.774;-0.352;2023-12-28T18:24:04;99670;;;11;47
78843;BME280;70542;53.774;-0.352;2023-12-28T18:29:51;99680;;;10;48
78843;BME280;70542;53.774;-0.352;2023-12-28T18:35:44;99680;;;10;48
78843;BME280;70542;53.774;-0.352;2023-12-28T18:41:33;99680;;;11;47
78843;BME280;70542;53.774;-0.352;2023-12-28T18:47:15;99680;;;10;48
78843;BME280;70542;53.774;-0.352;2023-12-28T18:53:02;99680;;;10;49
78843;BME280;70542;53.774;-0.352;2023-12-28T18:58:41;99670;;;10;49
78843;BME280;70542;53.774;-0.352;2023-12-28T19:04:33;99660;;;11;47
78843;BME280;70542;53.774;-0.352;2023-12-28T19:10:23;99660;;;10;47
78843;BME280;70542;53.774;-0.352;2023-12-28T19:16:06;99660;;;10;48
78843;BME280;70542;53.774;-0.352;2023-12-28T19:21:52;99670;;;9;50
78843;BME280;70542;53.774;-0.352;2023-12-28T19:27:35;99660;;;9;49
78843;BME280;70542;53.774;-0.352;2023-12-28T19:33:14;99670;;;10;48
78843;BME280;70542;53.774;-0.352;2023-12-28T19:39:03;99670;;;9;50
78843;BME280;70542;53.774;-0.352;2023-12-28T19:45:06;99670;;;8;51
78843;BME280;70542;53.774;-0.352;2023-12-28T19:50:45;99670;;;9;52
78843;BME280;70542;53.774;-0.352;2023-12-28T19:56:25;99680;;;8;52
78843;BME280;70542;53.774;-0.352;2023-12-28T20:02:12;99670;;;9;49
78843;BME280;70542;53.774;-0.352;2023-12-28T20:07:51;99670;;;9;49
78843;BME280;70542;53.774;-0.352;2023-12-28T20:13:39;99680;;;9;49
78843;BME280;70542;53.774;-0.352;2023-12-28T20:19:18;99670;;;9;50
78843;BME280;70542;53.774;-0.352;2023-12-28T20:25:16;99660;;;9;49
78843;BME280;70542;53.774;-0.352;2023-12-28T20:31:01;99660;;;10;47
78843;BME280;70542;53.774;-0.352;2023-12-28T20:36:41;99640;;;9;48
78843;BME280;70542;53.774;-0.352;2023-12-28T20:42:34;99640;;;9;50
78843;BME280;70542;53.774;-0.352;2023-12-28T20:48:20;99710;;;7;54
78843;BME280;70542;53.774;-0.352;2023-12-28T20:54:15;99690;;;5;60
78843;BME280;70542;53.774;-0.352;2023-12-28T20:59:58;99680;;;6;59
78843;BME280;70542;53.774;-0.352;2023-12-28T21:05:37;99670;;;6;58
78843;BME280;70542;53.774;-0.352;2023-12-28T21:11:24;99660;;;8;54
78843;BME280;70542;53.774;-0.352;2023-12-28T21:17:03;99660;;;8;55
78843;BME280;70542;53.774;-0.352;2023-12-28T21:22:41;99660;;;7;56
78843;BME280;70542;53.774;-0.352;2023-12-28T21:28:21;99640;;;7;55
78843;BME280;70542;53.774;-0.352;2023-12-28T21:34:12;99650;;;7;55
78843;BME280;70542;53.774;-0.352;2023-12-28T21:40:01;99640;;;9;53
78843;BME280;70542;53.774;-0.352;2023-12-28T21:45:44;99630;;;7;55
78843;BME280;70542;53.774;-0.352;2023-12-28T21:51:34;99620;;;8;53
78843;BME280;70542;53.774;-0.352;2023-12-28T21:57:13;99620;;;7;54
78843;BME280;70542;53.774;-0.352;2023-12-28T22:02:55;99630;;;7;55
78843;BME280;70542;53.774;-0.352;2023-12-28T22:08:38;99630;;;7;55
78843;BME280;70542;53.774;-0.352;2023-12-28T22:14:17;99650;;;6;56
78843;BME280;70542;53.774;-0.352;2023-12-28T22:19:58;99640;;;7;54
78843;BME280;70542;53.774;-0.352;2023-12-28T22:25:40;99630;;;7;55
78843;BME280;70542;53.774;-0.352;2023-12-28T22:31:19;99640;;;7;54
78843;BME280;70542;53.774;-0.352;2023-12-28T22:36:58;99640;;;7;54
78843;BME280;70542;53.774;-0.352;2023-12-28T22:42:45;99640;;;7;54
78843;BME280;70542;53.774;-0.352;2023-12-28T22:48:27;99650;;;7;54
78843;BME280;70542;53.774;-0.352;2023-12-28T22:54:25;99650;;;6;55
78843;BME280;70542;53.774;-0.352;2023-12-28T23:00:14;99650;;;6;56
78843;BME280;70542;53.774;-0.352;2023-12-28T23:06:05;99650;;;6;54
78843;BME280;70542;53.774;-0.352;2023-12-28T23:11:48;99650;;;6;54
78843;BME280;70542;53.774;-0.352;2023-12-28T23:17:36;99650;;;6;54
78843;BME280;70542;53.774;-0.352;2023-12-28T23:23:31;99660;;;6;54
78843;BME280;70542;53.774;-0.352;2023-12-28T23:29:26;99650;;;6;52
78843;BME280;70542;53.774;-0.352;2023-12-28T23:35:16;99650;;;6;53
78843;BME280;70542;53.774;-0.352;2023-12-28T23:41:06;99620;;;7;52
78843;BME280;70542;53.774;-0.352;2023-12-28T23:46:45;99620;;;6;55
78843;BME280;70542;53.774;-0.352;2023-12-28T23:52:37;99630;;;6;55
78843;BME280;70542;53.774;-0.352;2023-12-28T23:58:20;99630;;;6;55
